Soaring Guidance
Issued by NWS Reno, NV

Home | Current Version | Previous Version | Text Only | Print | Product List | Glossary On
Versions: 1 2 3 4 5 6 7 8 9 10 11 12
000
UXUS97 KREV 231432
SRGREV

SOARING FORECAST
NATIONAL WEATHER SERVICE - RENO NV
700 AM PDT SAT MAY 23 2015

THIS SOARING FORECAST IS FOR THE EASTERN SIERRA AND WESTERN NEVADA
WITH SPECIFIC INDICES FOR THE GREATER RENO AREA.

THIS FORECAST IS PREPARED DAILY BY 700 AM AND IS NOT UPDATED.

FOR CURRENT FLIGHT CONDITIONS...FORECASTS...AND ADVISORIES...ACCESS
YOUR LOCAL BRIEFING OUTLET OR FLIGHT SERVICE STATION.

*******************************************************************
LOCAL INDICES FOR RENO:                   TODAY     YESTERDAY
MAXIMUM TEMPERATURE AT RENO...(DEG F)...     66          68
TRIGGER TEMPERATURE...........(DEG F)...     55          56
   EXCEEDED YESTERDAY BY 855 AM PDT
MAXIMUM ALTITUDE..............(FT MSL)..  14200       14800
SOARING INDEX.................(FPM).....    788         804
FORECASTED K-INDEX.........VALID 18Z....     28          29
FORECASTED K-INDEX.........VALID 00Z....     31          32
FORECASTED LIFTED INDEX....VALID 18Z....      0           0
FORECASTED LIFTED INDEX....VALID 00Z....     -1          -1

AFTERNOON WINDS ALOFT FORECAST
MSL (FT) WIND/TEMP
9000  3318/+03
10000 3517/+00
12000 0218/-03
14000 0416/-07
16000 0513/-11
18000 0912/-16
24000 1119/-28
30000 1222/-46
34000 1115/-53
39000 3217/-53

SLIDE MOUNTAIN DATA:
SLD HR 1310 M 32/32/35004KT /SLIDE MTN UNOFFICIAL OBSERVATION

RENO TAF FORECAST:
KRNO 231126Z 2312/2412 VRB04KT P6SM VCSH SCT030 BKN045
      TEMPO 2313/2316 -SHRA SCT015 BKN025
     FM231700 33006KT 6SM RA SCT015 OVC025
     FM232100 31011KT P6SM VCSH SCT030 BKN045
     FM240400 VRB03KT P6SM SCT050 BKN090

CARSON CITY TAF FORECAST:
KCXP 231126Z 2312/2412 VRB04KT P6SM VCSH SCT030 OVC060
      TEMPO 2313/2317 -SHRA SCT020 BKN030 OVC040
     FM231800 33011KT 6SM RA SCT015 OVC025
     FM232200 32008KT P6SM VCSH SCT030 BKN045
     FM240300 VRB03KT P6SM SCT050 BKN090

OUTLOOK FOR THE RENO-CARSON CITY-MINDEN AREA:
.SUNDAY...PARTLY CLOUDY. SLIGHT CHANCE OF THUNDERSTORMS IN THE
AFTERNOON. HIGHS 69 TO 74. NORTHWEST WINDS UP TO 10 MPH IN THE
MORNING BECOMING LIGHT.

SUNRISE AND SUNSET
MAY 23 2015...........SUNRISE   539 AM PDT   SUNSET   813 PM PDT
MAY 24 2015...........SUNRISE   538 AM PDT   SUNSET   814 PM PDT



USA.gov is the U.S. government's official web portal to all federal, state and local government web resources and services.